Terminal Aerodrome Forecast
Issued by NWS

Home | Current Version | Previous Version | Text Only | Print | Product List | Glossary On
Versions: 1 2 3 4 5 6 7 8 9 10 11 12
000
FTUS44 KSJT 312324
TAFJCT
TAF
KJCT 312324Z 0100/0124 13010KT P6SM SCT070
     FM010200 VRB03KT P6SM SCT250
     FM012000 12008KT P6SM VCSH SCT070=

USA.gov is the U.S. government's official web portal to all federal, state and local government web resources and services.